Time;durP1;ratioP1;P1;durP2;ratioP2;P2;SDS_P1;SDS_P2;PMS_P1;PMS_P2;Temp;Humidity;BMP_temperature;BMP_pressure;BME280_temperature;BME280_humidity;BME280_pressure;Samples;Min_cycle;Max_cycle;Signal;HPM_P1;HPM_P2
2020/12/10 00:00:18;;;;;;;22.77;13.52;;;3.80;91.60;;;;;;5012178;28;20032;-85
2020/12/10 00:02:44;;;;;;;21.17;13.60;;;3.80;91.60;;;;;;5010852;28;20117;-85
2020/12/10 00:05:11;;;;;;;22.77;13.80;;;3.70;91.50;;;;;;5011318;28;20117;-84
2020/12/10 00:07:38;;;;;;;21.90;13.77;;;3.70;91.50;;;;;;4995924;28;20033;-86
2020/12/10 00:10:25;;;;;;;20.33;13.23;;;3.70;91.50;;;;;;5011570;28;20036;-85
2020/12/10 00:12:53;;;;;;;20.77;13.85;;;3.70;91.50;;;;;;5010721;28;20398;-85
2020/12/10 00:15:21;;;;;;;21.38;13.68;;;3.60;91.40;;;;;;4995674;28;20034;-85
2020/12/10 00:17:49;;;;;;;20.05;12.93;;;3.60;91.40;;;;;;5010373;28;20122;-86
2020/12/10 00:20:14;;;;;;;23.00;14.75;;;3.50;91.40;;;;;;4993482;28;20022;-85
2020/12/10 00:22:43;;;;;;;22.75;14.38;;;3.50;91.40;;;;;;4995076;28;20080;-85
2020/12/10 00:25:08;;;;;;;22.17;14.07;;;3.50;91.30;;;;;;5006873;28;20030;-85
2020/12/10 00:27:35;;;;;;;24.00;14.27;;;3.50;91.30;;;;;;5013625;28;20076;-85
2020/12/10 00:30:02;;;;;;;22.35;14.43;;;3.40;91.30;;;;;;5012571;28;20391;-86
2020/12/10 00:32:28;;;;;;;22.90;14.55;;;3.40;91.20;;;;;;4999486;28;20443;-85
2020/12/10 00:34:57;;;;;;;25.20;15.60;;;3.40;91.20;;;;;;5006550;28;20104;-85
2020/12/10 00:37:32;;;;;;;25.70;16.70;;;3.30;91.20;;;;;;5001816;28;20437;-86
2020/12/10 00:39:58;;;;;;;26.40;16.45;;;3.30;91.20;;;;;;4988419;28;20034;-85
2020/12/10 00:42:26;;;;;;;23.77;15.32;;;3.20;91.10;;;;;;4999299;28;20387;-84
2020/12/10 00:44:54;;;;;;;24.38;16.35;;;3.20;91.10;;;;;;4992392;28;20026;-85
2020/12/10 00:47:20;;;;;;;22.60;14.82;;;3.20;91.10;;;;;;5000476;28;20034;-85
2020/12/10 00:49:47;;;;;;;24.73;16.55;;;3.10;91.00;;;;;;4997135;28;20494;-85
2020/12/10 00:52:14;;;;;;;26.55;17.00;;;3.10;91.00;;;;;;5005927;28;20046;-89
2020/12/10 00:54:40;;;;;;;24.38;16.73;;;3.10;90.90;;;;;;5025419;28;20033;-85
2020/12/10 00:57:10;;;;;;;25.52;14.82;;;3.00;90.90;;;;;;5011909;28;20041;-86
2020/12/10 00:59:39;;;;;;;23.35;15.55;;;2.90;90.90;;;;;;5005252;28;20029;-86
2020/12/10 01:02:06;;;;;;;24.00;15.98;;;2.90;90.90;;;;;;4994848;28;20033;-86
2020/12/10 01:04:31;;;;;;;23.17;14.13;;;2.80;90.80;;;;;;5010929;28;20038;-85
2020/12/10 01:06:57;;;;;;;22.88;14.38;;;2.80;90.80;;;;;;4997502;28;20101;-85
2020/12/10 01:09:23;;;;;;;21.80;14.23;;;2.80;90.90;;;;;;5004322;28;20833;-85
2020/12/10 01:11:48;;;;;;;24.23;15.27;;;2.80;90.90;;;;;;4995825;28;20026;-85
2020/12/10 01:14:14;;;;;;;22.25;14.13;;;2.80;90.90;;;;;;4986829;28;20085;-85
2020/12/10 01:16:40;;;;;;;23.77;14.82;;;2.80;91.00;;;;;;5028093;28;20050;-84
2020/12/10 01:19:05;;;;;;;26.05;15.10;;;2.80;91.00;;;;;;5033339;28;20412;-85
2020/12/10 01:21:35;;;;;;;25.13;15.15;;;2.80;91.00;;;;;;5041197;28;20034;-86
2020/12/10 01:24:02;;;;;;;24.27;14.80;;;2.80;91.00;;;;;;5016338;28;20097;-87
2020/12/10 01:26:30;;;;;;;23.30;14.93;;;2.80;91.00;;;;;;5014224;28;20029;-85
2020/12/10 01:28:56;;;;;;;23.77;14.63;;;2.80;91.10;;;;;;5022324;28;20030;-85
2020/12/10 01:31:22;;;;;;;23.00;14.98;;;2.80;91.10;;;;;;5001714;28;20045;-86
2020/12/10 01:33:47;;;;;;;23.35;15.25;;;2.80;91.00;;;;;;4988231;28;20471;-85
2020/12/10 01:36:24;;;;;;;26.17;15.40;;;2.70;91.00;;;;;;5044010;28;20026;-85
2020/12/10 01:38:50;;;;;;;24.27;15.57;;;2.80;91.10;;;;;;5014631;28;20198;-85
2020/12/10 01:41:16;;;;;;;21.33;14.63;;;2.70;91.00;;;;;;5014775;28;20030;-84
2020/12/10 01:43:42;;;;;;;22.90;14.63;;;2.70;91.10;;;;;;5014378;28;20034;-84
2020/12/10 01:46:08;;;;;;;28.70;17.55;;;2.70;91.10;;;;;;5011667;28;20026;-84
2020/12/10 01:48:34;;;;;;;24.60;15.23;;;2.70;91.00;;;;;;4995213;28;20045;-84
2020/12/10 01:51:03;;;;;;;23.77;14.63;;;2.70;91.00;;;;;;5002570;28;20031;-83
2020/12/10 01:53:34;;;;;;;23.88;15.75;;;2.60;91.00;;;;;;4990891;28;20026;-84
2020/12/10 01:56:00;;;;;;;25.77;16.35;;;2.60;91.00;;;;;;5014981;28;20014;-84
2020/12/10 01:58:28;;;;;;;24.83;15.65;;;2.60;90.90;;;;;;5014728;28;20037;-84
2020/12/10 02:00:56;;;;;;;27.42;17.52;;;2.50;90.90;;;;;;5012452;28;20109;-84
2020/12/10 02:03:21;;;;;;;30.60;19.27;;;2.50;90.90;;;;;;5009435;28;20025;-84
2020/12/10 02:05:47;;;;;;;30.80;20.13;;;2.40;90.90;;;;;;5027516;28;20022;-84
2020/12/10 02:08:16;;;;;;;32.35;20.15;;;2.40;91.00;;;;;;5011325;28;20038;-84
2020/12/10 02:10:42;;;;;;;34.33;21.25;;;2.30;90.90;;;;;;5013204;28;20109;-84
2020/12/10 02:13:08;;;;;;;33.28;21.33;;;2.30;91.00;;;;;;5013625;28;20108;-85
2020/12/10 02:15:35;;;;;;;32.30;21.02;;;2.30;91.00;;;;;;4997178;28;20022;-85
2020/12/10 02:18:11;;;;;;;34.58;21.50;;;2.20;90.90;;;;;;5006637;28;20058;-84
2020/12/10 02:20:37;;;;;;;36.78;22.77;;;2.20;91.00;;;;;;5000908;28;20034;-84
2020/12/10 02:23:06;;;;;;;35.40;23.05;;;2.20;90.90;;;;;;5010251;28;20030;-84
2020/12/10 02:25:33;;;;;;;35.88;23.35;;;2.10;90.90;;;;;;4994267;28;20058;-84
2020/12/10 02:28:06;;;;;;;36.15;23.13;;;2.10;91.00;;;;;;5026963;28;20689;-84
2020/12/10 02:30:34;;;;;;;36.13;23.05;;;2.00;90.90;;;;;;4990399;28;20046;-84
2020/12/10 02:33:02;;;;;;;36.65;23.88;;;2.00;90.90;;;;;;4999110;28;20034;-84
2020/12/10 02:35:30;;;;;;;32.85;21.73;;;2.00;90.90;;;;;;5003466;28;20023;-83
2020/12/10 02:37:57;;;;;;;32.03;21.52;;;1.90;90.90;;;;;;5008486;28;20026;-84
2020/12/10 02:40:27;;;;;;;32.30;20.73;;;1.90;90.90;;;;;;5012096;28;20095;-84
2020/12/10 02:42:56;;;;;;;32.83;21.23;;;1.80;90.80;;;;;;5012188;28;20098;-84
2020/12/10 02:45:22;;;;;;;33.70;20.92;;;1.80;90.90;;;;;;5013110;28;20475;-84
2020/12/10 02:47:48;;;;;;;32.65;19.88;;;1.70;90.90;;;;;;5013582;28;20072;-84
2020/12/10 02:50:17;;;;;;;32.45;19.77;;;1.70;90.90;;;;;;5014222;28;20042;-88
2020/12/10 02:52:43;;;;;;;30.92;18.70;;;1.60;90.90;;;;;;5011422;28;20170;-84
2020/12/10 02:55:09;;;;;;;34.35;19.60;;;1.60;91.00;;;;;;5010530;28;20491;-86
2020/12/10 02:57:35;;;;;;;32.33;19.75;;;1.60;91.00;;;;;;4995021;28;20022;-83
2020/12/10 03:00:04;;;;;;;27.98;17.98;;;1.60;91.00;;;;;;4998719;28;20379;-84
2020/12/10 03:02:29;;;;;;;29.52;19.35;;;1.60;91.00;;;;;;5011293;28;20026;-84
2020/12/10 03:04:55;;;;;;;29.40;19.15;;;1.60;91.00;;;;;;5010482;28;20033;-84
2020/12/10 03:07:21;;;;;;;30.35;18.40;;;1.60;91.00;;;;;;5029226;28;20116;-84
2020/12/10 03:09:49;;;;;;;29.85;18.15;;;1.60;91.10;;;;;;4993370;28;20034;-85
2020/12/10 03:12:15;;;;;;;30.98;18.63;;;1.60;91.00;;;;;;5012196;28;20061;-84
2020/12/10 03:14:41;;;;;;;29.65;19.23;;;1.50;91.00;;;;;;5013272;28;20045;-84
2020/12/10 03:17:18;;;;;;;31.85;18.85;;;1.50;91.00;;;;;;5013167;28;20121;-83
2020/12/10 03:19:43;;;;;;;32.65;19.85;;;1.40;91.00;;;;;;5003354;28;20030;-84
2020/12/10 03:22:17;;;;;;;28.40;18.13;;;1.50;91.00;;;;;;4996293;28;20032;-84
2020/12/10 03:24:43;;;;;;;27.92;16.80;;;1.40;91.00;;;;;;4993519;28;20022;-83
2020/12/10 03:27:12;;;;;;;31.13;18.45;;;1.50;91.00;;;;;;5012439;28;20084;-84
2020/12/10 03:29:37;;;;;;;31.02;18.02;;;1.40;91.00;;;;;;5011891;28;20026;-84
2020/12/10 03:32:04;;;;;;;29.20;17.80;;;1.40;91.00;;;;;;5009776;28;20030;-85
2020/12/10 03:34:30;;;;;;;29.90;17.75;;;1.40;91.00;;;;;;5011067;28;20120;-85
2020/12/10 03:37:00;;;;;;;27.42;17.35;;;1.40;91.00;;;;;;4998978;28;20027;-84
2020/12/10 03:39:29;;;;;;;30.67;18.20;;;1.40;90.90;;;;;;5036660;28;20101;-84
2020/12/10 03:41:57;;;;;;;27.43;18.83;;;1.30;90.90;;;;;;5003127;28;20037;-84
2020/12/10 03:44:25;;;;;;;28.80;17.63;;;1.30;91.00;;;;;;5008588;28;20418;-84
2020/12/10 03:46:54;;;;;;;31.17;18.10;;;1.30;91.00;;;;;;5007385;28;20030;-84
2020/12/10 03:49:20;;;;;;;28.23;17.52;;;1.30;91.00;;;;;;4990883;28;20041;-84
2020/12/10 03:51:45;;;;;;;31.38;18.75;;;1.30;91.00;;;;;;5025258;28;20027;-85
2020/12/10 03:54:11;;;;;;;30.70;18.38;;;1.30;91.00;;;;;;4997752;28;20030;-84
2020/12/10 03:56:39;;;;;;;32.40;19.05;;;1.30;91.00;;;;;;5030878;28;20748;-83
2020/12/10 03:59:05;;;;;;;30.98;18.95;;;1.20;90.90;;;;;;5009159;28;20037;-84
2020/12/10 04:01:31;;;;;;;29.70;18.10;;;1.20;91.00;;;;;;4999142;28;20400;-84
2020/12/10 04:03:58;;;;;;;30.67;19.50;;;1.20;91.00;;;;;;5012150;28;20049;-84
2020/12/10 04:06:25;;;;;;;27.73;17.95;;;1.20;91.00;;;;;;5013394;28;20431;-84
2020/12/10 04:08:52;;;;;;;28.07;18.43;;;1.20;91.00;;;;;;5005913;28;20026;-84
2020/12/10 04:11:21;;;;;;;33.00;19.53;;;1.20;91.00;;;;;;4992840;28;20073;-84
2020/12/10 04:13:46;;;;;;;25.40;16.25;;;1.20;91.10;;;;;;4998202;28;20076;-84
2020/12/10 04:16:12;;;;;;;28.00;17.08;;;1.20;91.10;;;;;;5011966;28;20045;-83
2020/12/10 04:18:42;;;;;;;29.70;17.92;;;1.20;91.10;;;;;;5008484;28;20018;-84
2020/12/10 04:21:09;;;;;;;28.80;17.33;;;1.20;91.10;;;;;;4995929;28;20464;-84
2020/12/10 04:23:38;;;;;;;30.38;18.08;;;1.20;91.10;;;;;;5012304;28;20762;-84
2020/12/10 04:26:06;;;;;;;36.40;20.03;;;1.20;91.10;;;;;;5011874;28;20053;-84
2020/12/10 04:28:32;;;;;;;29.83;17.77;;;1.30;91.20;;;;;;5013029;28;20499;-83
2020/12/10 04:30:57;;;;;;;27.08;16.98;;;1.20;91.10;;;;;;4994760;28;20068;-84
2020/12/10 04:33:28;;;;;;;26.83;16.88;;;1.20;91.10;;;;;;5012026;28;20026;-85
2020/12/10 04:35:56;;;;;;;28.40;16.98;;;1.20;91.10;;;;;;5011783;28;20109;-84
2020/12/10 04:38:24;;;;;;;28.90;16.02;;;1.20;91.10;;;;;;5011820;28;20092;-87
2020/12/10 04:40:50;;;;;;;30.02;17.25;;;1.20;91.10;;;;;;5012309;28;20022;-84
2020/12/10 04:43:17;;;;;;;28.37;17.83;;;1.20;91.20;;;;;;5011953;28;20077;-84
2020/12/10 04:45:45;;;;;;;29.43;17.73;;;1.20;91.10;;;;;;5011608;28;20033;-84
2020/12/10 04:48:11;;;;;;;29.08;18.23;;;1.20;91.10;;;;;;4998148;28;20030;-84
2020/12/10 04:50:42;;;;;;;30.52;17.48;;;1.20;91.10;;;;;;4995611;28;20036;-84
2020/12/10 04:53:08;;;;;;;28.90;17.77;;;1.20;91.10;;;;;;5005517;28;20033;-83
2020/12/10 04:55:33;;;;;;;29.52;17.25;;;1.20;91.10;;;;;;5012001;28;20030;-83
2020/12/10 04:58:02;;;;;;;30.95;16.85;;;1.20;91.00;;;;;;5011176;28;20117;-84
2020/12/10 05:00:31;;;;;;;32.03;18.92;;;1.20;91.00;;;;;;5012311;28;20368;-86
2020/12/10 05:02:59;;;;;;;30.65;17.88;;;1.10;91.20;;;;;;5007276;28;20022;-86
2020/12/10 05:05:33;;;;;;;32.00;17.93;;;1.10;91.00;;;;;;4983275;28;20030;-87
2020/12/10 05:08:07;;;;;;;26.90;16.83;;;1.10;91.00;;;;;;5010462;28;20025;-87
2020/12/10 05:10:45;;;;;;;30.90;18.17;;;1.10;91.10;;;;;;4995912;28;20567;-86
2020/12/10 05:13:15;;;;;;;29.60;17.90;;;1.00;91.00;;;;;;4988613;28;20034;-85
2020/12/10 05:15:41;;;;;;;31.40;18.20;;;1.00;91.00;;;;;;5007818;28;20499;-85
2020/12/10 05:18:09;;;;;;;31.50;18.33;;;1.00;91.00;;;;;;5012298;28;20040;-85
2020/12/10 05:20:44;;;;;;;31.83;18.35;;;1.00;91.00;;;;;;5006700;28;20480;-84
2020/12/10 05:23:14;;;;;;;33.50;18.25;;;1.00;91.10;;;;;;5002947;28;20057;-84
2020/12/10 05:25:55;;;;;;;32.22;18.80;;;1.00;91.10;;;;;;4988293;28;20030;-84
2020/12/10 05:28:24;;;;;;;30.42;18.02;;;1.00;91.00;;;;;;5011379;28;20065;-84
2020/12/10 05:31:16;;;;;;;29.55;18.05;;;1.00;91.00;;;;;;5002076;28;20034;-83
2020/12/10 05:33:56;;;;;;;31.27;18.25;;;1.00;91.00;;;;;;5013386;28;20483;-85
2020/12/10 05:36:23;;;;;;;30.35;17.55;;;0.90;91.00;;;;;;4991943;28;20463;-84
2020/12/10 05:39:02;;;;;;;32.33;18.23;;;0.90;91.00;;;;;;5001849;28;20391;-85
2020/12/10 05:41:27;;;;;;;33.73;19.40;;;0.90;91.10;;;;;;5009660;28;20026;-88
2020/12/10 05:43:53;;;;;;;33.45;19.42;;;0.90;91.00;;;;;;5007832;28;20520;-84
2020/12/10 05:46:24;;;;;;;33.22;19.73;;;0.90;91.00;;;;;;4994447;28;20388;-87
2020/12/10 05:48:51;;;;;;;34.10;19.48;;;0.80;91.00;;;;;;4998752;28;20117;-84
2020/12/10 05:51:21;;;;;;;33.90;18.88;;;0.80;91.00;;;;;;5001480;28;20030;-86
2020/12/10 05:53:51;;;;;;;33.40;19.23;;;0.80;91.10;;;;;;5000198;28;20026;-86
2020/12/10 05:56:18;;;;;;;31.63;18.93;;;0.80;91.10;;;;;;5009216;28;20459;-85
2020/12/10 05:58:49;;;;;;;31.67;19.23;;;0.80;91.00;;;;;;5009726;28;20025;-87
2020/12/10 06:01:27;;;;;;;33.97;19.48;;;0.70;91.10;;;;;;5002185;28;20069;-86
2020/12/10 06:03:56;;;;;;;30.48;17.48;;;0.70;91.10;;;;;;5005415;28;20029;-85
2020/12/10 06:06:27;;;;;;;31.92;18.70;;;0.80;91.10;;;;;;5003142;28;20033;-86
2020/12/10 06:09:04;;;;;;;32.00;19.30;;;0.80;91.10;;;;;;5008716;28;20038;-85
2020/12/10 06:11:38;;;;;;;30.57;17.97;;;0.80;91.10;;;;;;4995401;28;20027;-88
2020/12/10 06:14:05;;;;;;;33.72;19.55;;;0.70;91.10;;;;;;5035549;28;20038;-85
2020/12/10 06:16:33;;;;;;;32.03;19.98;;;0.70;91.00;;;;;;5015021;28;20387;-87
2020/12/10 06:19:04;;;;;;;33.77;19.40;;;0.70;91.10;;;;;;5014094;28;20472;-85
2020/12/10 06:21:33;;;;;;;33.53;19.50;;;0.70;91.00;;;;;;5014710;28;20042;-86
2020/12/10 06:24:00;;;;;;;31.60;18.73;;;0.70;91.10;;;;;;5015332;28;20452;-85
2020/12/10 06:26:26;;;;;;;32.47;19.23;;;0.60;91.10;;;;;;4998380;28;20040;-85
2020/12/10 06:29:11;;;;;;;34.17;19.43;;;0.60;91.10;;;;;;5010904;28;20694;-86
2020/12/10 06:32:06;;;;;;;28.80;17.53;;;0.60;91.10;;;;;;5014209;28;20040;-86
2020/12/10 06:34:34;;;;;;;31.10;18.87;;;0.50;91.40;;;;;;4999648;28;20030;-88
2020/12/10 06:37:13;;;;;;;33.77;18.77;;;0.60;91.20;;;;;;5014187;28;20466;-86
2020/12/10 06:39:39;;;;;;;32.47;17.67;;;0.60;91.20;;;;;;4997614;28;20503;-85
2020/12/10 06:42:05;;;;;;;34.23;20.37;;;0.60;91.20;;;;;;4993354;28;20058;-86
2020/12/10 06:44:32;;;;;;;32.60;18.73;;;0.60;91.10;;;;;;4983879;28;20030;-85
2020/12/10 06:47:05;;;;;;;32.67;18.70;;;0.50;91.20;;;;;;5013406;28;20034;-86
2020/12/10 06:49:33;;;;;;;33.07;18.10;;;0.50;91.20;;;;;;4993349;28;20117;-85
2020/12/10 06:52:21;;;;;;;32.23;18.50;;;0.60;91.20;;;;;;5012692;28;20053;-85
2020/12/10 06:55:09;;;;;;;33.27;18.87;;;0.50;91.20;;;;;;5011793;28;20022;-85
2020/12/10 06:58:14;;;;;;;34.77;18.83;;;0.60;91.30;;;;;;5008454;28;20037;-86
2020/12/10 07:00:49;;;;;;;34.33;17.23;;;0.60;91.30;;;;;;5002727;28;20039;-85
2020/12/10 07:03:27;;;;;;;28.80;17.90;;;0.60;91.30;;;;;;5028432;28;20018;-85
2020/12/10 07:06:05;;;;;;;;;;;;;;;;;;;;;
2020/12/10 07:08:34;;;;;;;30.93;18.50;;;0.60;91.20;;;;;;4993772;28;20033;-86
2020/12/10 07:11:05;;;;;;;33.50;19.50;;;0.60;91.20;;;;;;5010721;28;20048;-85
2020/12/10 07:13:31;;;;;;;35.27;20.17;;;0.60;91.20;;;;;;5009991;28;20049;-85
2020/12/10 07:15:59;;;;;;;31.93;18.77;;;0.60;91.20;;;;;;5008449;28;20364;-86
2020/12/10 07:18:25;;;;;;;35.73;20.37;;;0.60;91.10;;;;;;4997373;28;20060;-85
2020/12/10 07:21:01;;;;;;;32.50;19.88;;;0.50;91.10;;;;;;5014053;28;20030;-86
2020/12/10 07:23:29;;;;;;;33.93;19.23;;;0.50;91.10;;;;;;4997074;28;20057;-85
2020/12/10 07:25:57;;;;;;;34.60;19.23;;;0.50;91.10;;;;;;5012665;28;20014;-87
2020/12/10 07:28:23;;;;;;;33.37;18.13;;;0.50;91.10;;;;;;5011044;28;20141;-85
2020/12/10 07:30:48;;;;;;;33.13;19.23;;;0.50;91.10;;;;;;4992546;28;20524;-86
2020/12/10 07:33:26;;;;;;;36.70;20.50;;;0.50;91.10;;;;;;5012801;28;20034;-85
2020/12/10 07:35:57;;;;;;;32.57;18.80;;;0.50;91.10;;;;;;5014074;28;20463;-85
2020/12/10 07:38:24;;;;;;;33.53;19.97;;;0.50;91.10;;;;;;5012418;28;20042;-85
2020/12/10 07:40:54;;;;;;;31.13;18.00;;;0.40;91.10;;;;;;5012298;28;20371;-87
2020/12/10 07:43:20;;;;;;;33.07;18.87;;;0.40;91.10;;;;;;5011412;28;20057;-86
2020/12/10 07:45:51;;;;;;;31.83;18.92;;;0.40;91.10;;;;;;5009967;28;20058;-85
2020/12/10 07:48:18;;;;;;;35.23;19.23;;;0.50;91.10;;;;;;5041248;28;20042;-86
2020/12/10 07:53:36;;;;;;;35.57;19.97;;;0.50;91.10;;;;;;4971253;28;20479;-85
2020/12/10 07:56:13;;;;;;;;;;;;;;;;;;;;;
2020/12/10 07:58:54;;;;;;;34.97;20.00;;;0.40;91.10;;;;;;5009502;28;20041;-85
2020/12/10 08:01:50;;;;;;;32.65;19.90;;;0.40;91.10;;;;;;5016082;28;20060;-85
2020/12/10 08:04:21;;;;;;;33.70;19.07;;;0.40;91.20;;;;;;5015826;28;20121;-85
2020/12/10 08:06:49;;;;;;;32.78;18.42;;;0.40;91.10;;;;;;4977207;28;20022;-85
2020/12/10 08:09:15;;;;;;;34.23;19.83;;;0.40;91.10;;;;;;4979952;28;20058;-85
2020/12/10 08:11:56;;;;;;;32.43;19.33;;;0.40;91.10;;;;;;5011266;28;20030;-88
2020/12/10 08:14:31;;;;;;;36.88;19.67;;;0.40;91.20;;;;;;5003897;28;20034;-85
2020/12/10 08:17:03;;;;;;;36.37;20.87;;;0.50;91.20;;;;;;4991922;28;20065;-85
2020/12/10 08:19:42;;;;;;;;;;;;;;;;;;;;;
2020/12/10 08:22:20;;;;;;;39.17;21.90;;;0.40;91.20;;;;;;5013670;28;20034;-85
2020/12/10 08:24:49;;;;;;;40.17;22.17;;;0.40;91.10;;;;;;5008433;28;20014;-87
2020/12/10 08:27:19;;;;;;;34.00;20.27;;;0.40;91.20;;;;;;5000784;28;20029;-85
2020/12/10 08:30:12;;;;;;;41.73;21.77;;;0.40;91.20;;;;;;5012678;28;20550;-85
2020/12/10 08:33:15;;;;;;;38.60;21.97;;;0.40;91.20;;;;;;5007479;28;20030;-85
2020/12/10 08:35:42;;;;;;;42.40;22.60;;;0.40;91.30;;;;;;4973919;28;20488;-85
2020/12/10 08:38:30;;;;;;;38.90;22.83;;;0.40;91.30;;;;;;5000180;28;20030;-85
2020/12/10 08:41:05;;;;;;;38.37;22.33;;;0.40;91.30;;;;;;4984190;28;20062;-84
2020/12/10 08:44:17;;;;;;;39.57;23.07;;;0.50;91.40;;;;;;4993778;28;20114;-84
2020/12/10 08:47:17;;;;;;;40.83;21.30;;;0.50;91.40;;;;;;5022219;28;20042;-84
2020/12/10 08:50:09;;;;;;;34.03;20.30;;;0.50;91.70;;;;;;4995128;28;20034;-85
2020/12/10 08:53:08;;;;;;;42.33;24.40;;;0.50;91.40;;;;;;4998249;28;20078;-84
2020/12/10 08:55:40;;;;;;;41.27;22.97;;;0.50;91.30;;;;;;5003495;28;20394;-85
2020/12/10 08:58:06;;;;;;;35.95;21.90;;;0.50;91.40;;;;;;4993422;28;20080;-85
2020/12/10 09:00:37;;;;;;;41.00;23.63;;;0.60;91.40;;;;;;5006205;28;20387;-89
2020/12/10 09:03:06;;;;;;;40.97;23.00;;;0.60;91.40;;;;;;5008897;28;20022;-85
2020/12/10 09:06:09;;;;;;;40.90;23.43;;;0.60;91.40;;;;;;5007680;28;20472;-85
2020/12/10 09:08:39;;;;;;;43.33;23.73;;;0.60;91.40;;;;;;4975136;28;20068;-85
2020/12/10 09:11:10;;;;;;;41.27;23.53;;;0.60;91.40;;;;;;4996088;28;20065;-85
2020/12/10 09:13:40;;;;;;;39.58;22.90;;;0.60;91.40;;;;;;4978592;28;20030;-85
2020/12/10 09:16:19;;;;;;;38.70;21.90;;;0.60;91.40;;;;;;5001153;28;20546;-84
2020/12/10 09:18:47;;;;;;;33.45;20.67;;;0.50;91.40;;;;;;5000622;28;20135;-89
2020/12/10 09:21:15;;;;;;;35.95;22.02;;;0.60;91.50;;;;;;5009667;28;20463;-85
2020/12/10 09:23:59;;;;;;;38.90;21.67;;;0.60;91.50;;;;;;5006556;28;20117;-84
2020/12/10 09:26:25;;;;;;;40.37;22.60;;;0.60;91.50;;;;;;5010965;28;20022;-84
2020/12/10 09:29:15;;;;;;;38.03;21.88;;;0.60;91.50;;;;;;5014647;28;20490;-85
2020/12/10 09:31:50;;;;;;;34.90;20.23;;;0.70;91.50;;;;;;5015343;28;20091;-85
2020/12/10 09:34:16;;;;;;;40.80;23.00;;;0.70;91.50;;;;;;4996897;28;20399;-85
2020/12/10 09:37:00;;;;;;;41.10;23.20;;;0.80;91.50;;;;;;4996693;28;20033;-84
2020/12/10 09:39:29;;;;;;;39.63;22.13;;;0.80;91.50;;;;;;5006353;28;20054;-85
2020/12/10 09:42:21;;;;;;;40.70;23.27;;;0.80;91.50;;;;;;4994822;28;20061;-85
2020/12/10 09:44:55;;;;;;;40.17;22.37;;;0.90;91.60;;;;;;5002214;28;20041;-83
2020/12/10 09:47:21;;;;;;;40.10;21.88;;;0.90;91.50;;;;;;5014957;28;20069;-83
2020/12/10 09:49:46;;;;;;;41.00;22.57;;;0.90;91.60;;;;;;5016303;28;20061;-86
2020/12/10 09:52:14;;;;;;;39.97;22.90;;;1.00;91.60;;;;;;5002158;28;20057;-84
2020/12/10 09:54:56;;;;;;;47.40;27.53;;;1.10;91.60;;;;;;5004903;28;20085;-83
2020/12/10 09:57:29;;;;;;;44.03;24.48;;;1.10;91.50;;;;;;5004287;28;20472;-85
2020/12/10 09:59:57;;;;;;;47.13;25.00;;;1.00;91.50;;;;;;5009704;28;20026;-83
2020/12/10 10:02:25;;;;;;;43.87;25.13;;;1.00;91.50;;;;;;4997505;28;20042;-82
2020/12/10 10:04:59;;;;;;;45.80;26.50;;;1.10;91.50;;;;;;4991674;28;20033;-83
2020/12/10 10:10:19;;;;;;;36.53;22.35;;;1.10;91.50;;;;;;5015002;28;20133;-86
2020/12/10 10:12:55;;;;;;;38.58;22.17;;;1.20;91.50;;;;;;5013534;28;20022;-84
2020/12/10 10:15:31;;;;;;;38.30;21.67;;;1.20;91.50;;;;;;5020434;28;20041;-83
2020/12/10 10:17:56;;;;;;;39.35;23.38;;;1.30;91.60;;;;;;4994642;28;20050;-83
2020/12/10 10:20:25;;;;;;;43.50;24.52;;;1.30;91.60;;;;;;5013327;28;20030;-83
2020/12/10 10:22:56;;;;;;;37.78;22.35;;;1.30;91.50;;;;;;5014374;28;20026;-84
2020/12/10 10:25:27;;;;;;;41.10;23.10;;;1.30;91.50;;;;;;5012893;28;20042;-86
2020/12/10 10:27:53;;;;;;;40.80;23.15;;;1.40;91.50;;;;;;4995797;28;20297;-84
2020/12/10 10:30:22;;;;;;;43.72;24.65;;;1.40;91.50;;;;;;5003646;28;20084;-83
2020/12/10 10:32:49;;;;;;;38.47;22.35;;;1.40;91.50;;;;;;5015066;28;20072;-83
2020/12/10 10:35:16;;;;;;;41.75;21.77;;;1.50;91.60;;;;;;5004129;28;20054;-84
2020/12/10 10:37:48;;;;;;;37.17;21.80;;;1.40;91.50;;;;;;5007010;28;20368;-84
2020/12/10 10:40:14;;;;;;;37.92;22.25;;;1.50;91.60;;;;;;4991333;28;20038;-84
2020/12/10 10:42:53;;;;;;;36.50;22.63;;;1.50;91.60;;;;;;5010297;28;20045;-88
2020/12/10 10:45:25;;;;;;;40.55;23.25;;;1.50;91.50;;;;;;5007131;28;20026;-85
2020/12/10 10:48:03;;;;;;;34.92;20.83;;;1.50;91.50;;;;;;4999225;28;20034;-88
2020/12/10 10:50:28;;;;;;;36.58;21.85;;;1.50;91.50;;;;;;4995664;28;20464;-84
2020/12/10 10:53:05;;;;;;;39.58;23.45;;;1.50;91.50;;;;;;4998739;28;20033;-83
2020/12/10 10:55:33;;;;;;;39.58;22.13;;;1.60;91.50;;;;;;5004905;28;20491;-85
2020/12/10 10:58:01;;;;;;;42.10;23.40;;;1.60;91.50;;;;;;5000124;28;20023;-82
2020/12/10 11:00:30;;;;;;;37.28;21.63;;;1.60;91.50;;;;;;5005575;28;20504;-84
2020/12/10 11:03:18;;;;;;;36.97;22.67;;;1.60;91.50;;;;;;5001053;28;20037;-87
2020/12/10 11:05:46;;;;;;;45.10;26.35;;;1.60;91.40;;;;;;4974762;28;20411;-86
2020/12/10 11:08:11;;;;;;;46.13;26.77;;;1.60;91.40;;;;;;5007657;28;20034;-83
2020/12/10 11:10:41;;;;;;;41.55;24.05;;;1.70;91.40;;;;;;4996823;28;20034;-84
2020/12/10 11:13:17;;;;;;;42.30;25.52;;;1.70;91.40;;;;;;5010904;28;20547;-88
2020/12/10 11:16:10;;;;;;;40.45;23.63;;;1.70;91.30;;;;;;5011419;28;20053;-84
2020/12/10 11:18:36;;;;;;;45.20;26.02;;;1.70;91.40;;;;;;5011467;28;20127;-85
2020/12/10 11:21:26;;;;;;;39.95;23.98;;;1.70;91.30;;;;;;5004707;28;20061;-85
2020/12/10 11:23:56;;;;;;;42.35;24.35;;;1.70;91.30;;;;;;5008794;28;20511;-86
2020/12/10 11:26:25;;;;;;;42.67;25.35;;;1.70;91.30;;;;;;5012372;28;20044;-87
2020/12/10 11:28:51;;;;;;;41.65;25.10;;;1.70;91.40;;;;;;5003432;28;20045;-85
2020/12/10 11:31:22;;;;;;;44.00;26.40;;;1.80;91.40;;;;;;5010738;28;20026;-86
2020/12/10 11:33:47;;;;;;;44.70;26.30;;;1.80;91.30;;;;;;5007228;28;20483;-85
2020/12/10 11:36:41;;;;;;;46.50;25.80;;;1.80;91.30;;;;;;5005967;28;20211;-86
2020/12/10 11:39:08;;;;;;;43.92;26.33;;;1.80;91.30;;;;;;5005923;28;20260;-85
2020/12/10 11:41:45;;;;;;;43.75;25.75;;;1.80;91.30;;;;;;5009919;28;20018;-88
2020/12/10 11:44:13;;;;;;;46.53;27.38;;;1.80;91.30;;;;;;5037701;28;20055;-85
2020/12/10 11:46:42;;;;;;;45.38;26.75;;;1.80;91.30;;;;;;4994311;28;20030;-85
2020/12/10 11:49:12;;;;;;;42.20;25.17;;;1.80;91.30;;;;;;4995223;28;20037;-86
2020/12/10 11:51:51;;;;;;;38.08;23.75;;;1.90;91.30;;;;;;5001296;28;20388;-84
2020/12/10 11:54:19;;;;;;;42.42;25.17;;;2.00;91.30;;;;;;5002042;28;20025;-84
2020/12/10 11:56:45;;;;;;;41.17;24.92;;;1.90;91.30;;;;;;5005370;28;20113;-86
2020/12/10 11:59:14;;;;;;;42.63;25.88;;;2.00;91.30;;;;;;5012234;28;20165;-88
2020/12/10 12:01:40;;;;;;;39.53;24.73;;;2.00;91.30;;;;;;5010010;28;20022;-85
2020/12/10 12:04:10;;;;;;;41.75;25.42;;;2.00;91.30;;;;;;4972559;28;20042;-86
2020/12/10 12:06:38;;;;;;;43.42;24.20;;;2.00;91.20;;;;;;5003850;28;20033;-84
2020/12/10 12:09:09;;;;;;;39.35;23.52;;;2.00;91.20;;;;;;4991185;28;20030;-85
2020/12/10 12:11:38;;;;;;;38.70;24.05;;;2.00;91.20;;;;;;4998363;28;20022;-84
2020/12/10 12:14:23;;;;;;;40.90;24.35;;;2.10;91.20;;;;;;4997981;28;20050;-84
2020/12/10 12:16:57;;;;;;;39.53;24.30;;;2.00;91.10;;;;;;5001924;28;20054;-85
2020/12/10 12:19:26;;;;;;;41.28;23.63;;;2.10;91.20;;;;;;5006424;28;20484;-85
2020/12/10 12:21:57;;;;;;;39.00;24.40;;;2.10;91.20;;;;;;5006586;28;20040;-85
2020/12/10 12:24:25;;;;;;;37.65;23.45;;;2.10;91.10;;;;;;4993285;28;20120;-85
2020/12/10 12:27:14;;;;;;;38.30;23.40;;;2.10;91.10;;;;;;4993130;28;20049;-86
2020/12/10 12:29:45;;;;;;;42.25;25.08;;;2.20;91.10;;;;;;5005997;28;20045;-85
2020/12/10 12:32:40;;;;;;;41.83;25.05;;;2.10;91.10;;;;;;5010493;28;20026;-84
2020/12/10 12:35:09;;;;;;;41.17;24.55;;;2.10;91.00;;;;;;5004838;28;20085;-86
2020/12/10 12:38:07;;;;;;;;;;;;;;;;;;;;;
2020/12/10 12:40:33;;;;;;;40.55;25.23;;;2.10;90.90;;;;;;4999965;28;20030;-85
2020/12/10 12:43:00;;;;;;;42.63;26.10;;;2.10;90.90;;;;;;5013888;28;20458;-84
2020/12/10 12:45:27;;;;;;;38.00;23.70;;;2.10;91.00;;;;;;5002219;28;20033;-84
2020/12/10 12:48:08;;;;;;;41.75;24.27;;;2.10;91.00;;;;;;5008486;28;20042;-85
2020/12/10 12:50:33;;;;;;;42.67;23.48;;;2.10;91.00;;;;;;5010682;28;20038;-87
2020/12/10 12:53:20;;;;;;;41.42;24.85;;;2.10;91.00;;;;;;5007372;28;20030;-85
2020/12/10 12:55:51;;;;;;;39.15;23.05;;;2.20;91.00;;;;;;5009228;28;20073;-87
2020/12/10 12:58:20;;;;;;;40.20;24.45;;;2.20;91.00;;;;;;4995403;28;20041;-87
2020/12/10 13:01:33;;;;;;;43.10;26.02;;;2.20;91.00;;;;;;5014334;28;20073;-86
2020/12/10 13:04:09;;;;;;;40.97;24.60;;;2.20;91.00;;;;;;5004527;28;20525;-90
2020/12/10 13:06:34;;;;;;;42.85;24.67;;;2.20;91.00;;;;;;5013734;28;20030;-89